sensor_id;sensor_type;location;lat;lon;timestamp;pressure;altitude;pressure_sealevel;temperature;humidity
61113;BME280;47184;57.998;56.184;2023-02-28T03:44:46;98806.44;;;-3.61;72.30
61113;BME280;47184;57.998;56.184;2023-02-28T03:47:23;98807.69;;;-3.54;71.91
61113;BME280;47184;57.998;56.184;2023-02-28T03:52:46;98810.34;;;-3.56;72.45
61113;BME280;47184;57.998;56.184;2023-02-28T03:55:14;98803.88;;;-3.49;72.76
61113;BME280;47184;57.998;56.184;2023-02-28T03:57:53;98805.81;;;-3.52;72.75
61113;BME280;47184;57.998;56.184;2023-02-28T04:00:33;98817.81;;;-3.51;72.93
61113;BME280;47184;57.998;56.184;2023-02-28T04:03:01;98792.19;;;-3.67;72.98
61113;BME280;47184;57.998;56.184;2023-02-28T04:21:49;98784.78;;;-3.59;73.60
61113;BME280;47184;57.998;56.184;2023-02-28T04:24:24;98770.00;;;-3.57;73.29
61113;BME280;47184;57.998;56.184;2023-02-28T04:26:53;98767.75;;;-3.61;73.48
61113;BME280;47184;57.998;56.184;2023-02-28T04:29:27;98793.56;;;-3.36;73.24
61113;BME280;47184;57.998;56.184;2023-02-28T04:31:55;98785.41;;;-3.42;73.51
61113;BME280;47184;57.998;56.184;2023-02-28T04:34:23;98776.94;;;-3.44;73.39
61113;BME280;47184;57.998;56.184;2023-02-28T04:36:50;98769.72;;;-3.39;73.54
61113;BME280;47184;57.998;56.184;2023-02-28T04:39:19;98787.88;;;-3.28;73.45
61113;BME280;47184;57.998;56.184;2023-02-28T04:41:46;98767.97;;;-3.26;73.79
61113;BME280;47184;57.998;56.184;2023-02-28T04:45:22;98768.69;;;-3.24;73.87
61113;BME280;47184;57.998;56.184;2023-02-28T04:47:48;98775.47;;;-3.23;74.38
61113;BME280;47184;57.998;56.184;2023-02-28T04:50:14;98766.53;;;-3.17;74.28
61113;BME280;47184;57.998;56.184;2023-02-28T04:52:40;98767.34;;;-3.17;73.91
61113;BME280;47184;57.998;56.184;2023-02-28T04:55:07;98769.72;;;-3.14;74.04
61113;BME280;47184;57.998;56.184;2023-02-28T04:57:33;98760.63;;;-3.45;74.02
61113;BME280;47184;57.998;56.184;2023-02-28T04:59:59;98768.16;;;-3.16;73.87
61113;BME280;47184;57.998;56.184;2023-02-28T05:02:25;98747.53;;;-3.42;73.31
61113;BME280;47184;57.998;56.184;2023-02-28T05:04:51;98761.88;;;-3.63;72.54
61113;BME280;47184;57.998;56.184;2023-02-28T05:19:38;98745.84;;;-3.81;70.10
61113;BME280;47184;57.998;56.184;2023-02-28T05:22:04;98753.25;;;-3.89;69.70
61113;BME280;47184;57.998;56.184;2023-02-28T05:24:30;98768.22;;;-3.82;69.36
61113;BME280;47184;57.998;56.184;2023-02-28T05:26:56;98726.19;;;-4.22;69.60
61113;BME280;47184;57.998;56.184;2023-02-28T05:29:23;98755.97;;;-3.65;69.07
61113;BME280;47184;57.998;56.184;2023-02-28T05:31:49;98730.81;;;-3.62;69.00
61113;BME280;47184;57.998;56.184;2023-02-28T05:34:15;98750.75;;;-3.51;68.77
61113;BME280;47184;57.998;56.184;2023-02-28T05:36:42;98739.38;;;-3.61;69.17
61113;BME280;47184;57.998;56.184;2023-02-28T05:39:09;98729.88;;;-3.61;69.14
61113;BME280;47184;57.998;56.184;2023-02-28T05:45:46;98685.38;;;-3.52;69.27
61113;BME280;47184;57.998;56.184;2023-02-28T05:48:12;98702.31;;;-3.60;69.07
61113;BME280;47184;57.998;56.184;2023-02-28T05:50:38;98706.34;;;-3.43;68.70
61113;BME280;47184;57.998;56.184;2023-02-28T05:53:06;98686.44;;;-3.41;68.72
61113;BME280;47184;57.998;56.184;2023-02-28T05:55:32;98664.69;;;-3.13;68.07
61113;BME280;47184;57.998;56.184;2023-02-28T05:57:59;98664.78;;;-3.02;68.12
61113;BME280;47184;57.998;56.184;2023-02-28T06:00:25;98661.09;;;-2.87;67.64
61113;BME280;47184;57.998;56.184;2023-02-28T06:02:51;98660.94;;;-2.96;67.38
61113;BME280;47184;57.998;56.184;2023-02-28T06:09:29;98657.13;;;-2.56;67.25
61113;BME280;47184;57.998;56.184;2023-02-28T06:11:58;98627.22;;;-2.47;66.99
61113;BME280;47184;57.998;56.184;2023-02-28T06:14:26;98652.50;;;-2.87;66.82
61113;BME280;47184;57.998;56.184;2023-02-28T06:16:52;98641.56;;;-2.91;67.57
61113;BME280;47184;57.998;56.184;2023-02-28T06:19:18;98636.47;;;-3.04;67.76
61113;BME280;47184;57.998;56.184;2023-02-28T06:21:45;98640.47;;;-3.00;67.82
61113;BME280;47184;57.998;56.184;2023-02-28T06:24:14;98640.72;;;-3.65;68.75
61113;BME280;47184;57.998;56.184;2023-02-28T06:26:42;98650.63;;;-3.84;68.78
61113;BME280;47184;57.998;56.184;2023-02-28T06:29:12;98641.75;;;-3.80;67.88
61113;BME280;47184;57.998;56.184;2023-02-28T06:31:42;98671.88;;;-3.93;65.86
61113;BME280;47184;57.998;56.184;2023-02-28T06:34:10;98647.47;;;-3.88;65.51
61113;BME280;47184;57.998;56.184;2023-02-28T06:36:40;98658.66;;;-4.14;65.32
61113;BME280;47184;57.998;56.184;2023-02-28T06:39:09;98628.88;;;-4.18;65.49
61113;BME280;47184;57.998;56.184;2023-02-28T06:41:54;98615.16;;;-4.06;65.24
61113;BME280;47184;57.998;56.184;2023-02-28T06:44:20;98628.16;;;-3.95;65.29
61113;BME280;47184;57.998;56.184;2023-02-28T06:46:47;98635.59;;;-3.90;64.63
61113;BME280;47184;57.998;56.184;2023-02-28T06:49:13;98633.94;;;-3.66;64.67
61113;BME280;47184;57.998;56.184;2023-02-28T06:51:42;98638.91;;;-3.26;64.26
61113;BME280;47184;57.998;56.184;2023-02-28T06:54:11;98600.13;;;-3.37;64.24
61113;BME280;47184;57.998;56.184;2023-02-28T06:56:38;98629.09;;;-3.21;63.51
61113;BME280;47184;57.998;56.184;2023-02-28T06:59:04;98607.84;;;-3.01;64.14
61113;BME280;47184;57.998;56.184;2023-02-28T07:01:30;98593.22;;;-2.89;63.62
61113;BME280;47184;57.998;56.184;2023-02-28T07:04:02;98605.06;;;-2.73;63.19
61113;BME280;47184;57.998;56.184;2023-02-28T07:06:28;98594.03;;;-2.64;63.31
61113;BME280;47184;57.998;56.184;2023-02-28T07:08:55;98577.28;;;-2.83;63.25
61113;BME280;47184;57.998;56.184;2023-02-28T07:11:23;98587.22;;;-2.65;63.55
61113;BME280;47184;57.998;56.184;2023-02-28T07:13:52;98573.09;;;-2.72;63.28
61113;BME280;47184;57.998;56.184;2023-02-28T07:16:19;98569.72;;;-2.97;63.74
61113;BME280;47184;57.998;56.184;2023-02-28T07:18:45;98545.25;;;-2.80;63.25
61113;BME280;47184;57.998;56.184;2023-02-28T07:21:11;98566.13;;;-2.83;64.15
61113;BME280;47184;57.998;56.184;2023-02-28T07:23:39;98510.97;;;-3.17;64.16
61113;BME280;47184;57.998;56.184;2023-02-28T07:26:17;98535.34;;;-2.97;64.90
61113;BME280;47184;57.998;56.184;2023-02-28T07:28:46;98506.88;;;-3.33;65.17
61113;BME280;47184;57.998;56.184;2023-02-28T07:31:13;98520.84;;;-2.76;65.23
61113;BME280;47184;57.998;56.184;2023-02-28T07:33:40;98529.28;;;-2.74;64.69
61113;BME280;47184;57.998;56.184;2023-02-28T07:36:12;98529.03;;;-2.82;65.44
61113;BME280;47184;57.998;56.184;2023-02-28T07:38:42;98527.47;;;-2.96;65.46
61113;BME280;47184;57.998;56.184;2023-02-28T07:41:09;98503.06;;;-2.92;66.30
61113;BME280;47184;57.998;56.184;2023-02-28T07:43:36;98518.28;;;-2.65;65.49
61113;BME280;47184;57.998;56.184;2023-02-28T07:46:07;98493.88;;;-2.50;65.30
61113;BME280;47184;57.998;56.184;2023-02-28T07:48:33;98507.53;;;-2.25;64.88
61113;BME280;47184;57.998;56.184;2023-02-28T07:51:00;98490.63;;;-2.07;64.94
61113;BME280;47184;57.998;56.184;2023-02-28T07:53:27;98501.53;;;-2.26;64.81
61113;BME280;47184;57.998;56.184;2023-02-28T07:55:56;98490.28;;;-2.25;64.69
61113;BME280;47184;57.998;56.184;2023-02-28T07:58:22;98490.97;;;-2.22;65.51
61113;BME280;47184;57.998;56.184;2023-02-28T08:00:49;98492.38;;;-2.18;64.66
61113;BME280;47184;57.998;56.184;2023-02-28T08:03:17;98483.78;;;-1.96;65.05
61113;BME280;47184;57.998;56.184;2023-02-28T08:05:45;98468.22;;;-1.74;64.90
61113;BME280;47184;57.998;56.184;2023-02-28T08:08:11;98445.03;;;-1.64;64.60
61113;BME280;47184;57.998;56.184;2023-02-28T08:10:37;98441.00;;;-1.46;63.58
61113;BME280;47184;57.998;56.184;2023-02-28T08:13:04;98447.34;;;-0.97;63.10
61113;BME280;47184;57.998;56.184;2023-02-28T08:15:30;98431.81;;;-0.97;61.41
61113;BME280;47184;57.998;56.184;2023-02-28T08:17:56;98416.78;;;-0.52;60.82
61113;BME280;47184;57.998;56.184;2023-02-28T08:20:23;98386.09;;;-0.06;59.50
61113;BME280;47184;57.998;56.184;2023-02-28T08:22:50;98354.66;;;-0.22;57.85
61113;BME280;47184;57.998;56.184;2023-02-28T08:25:16;98398.84;;;0.26;58.64
61113;BME280;47184;57.998;56.184;2023-02-28T08:27:42;98377.97;;;0.37;57.79
61113;BME280;47184;57.998;56.184;2023-02-28T08:30:13;98386.03;;;0.54;57.37
61113;BME280;47184;57.998;56.184;2023-02-28T08:32:40;98376.13;;;-0.01;56.81
61113;BME280;47184;57.998;56.184;2023-02-28T08:35:07;98390.47;;;-0.07;57.70
61113;BME280;47184;57.998;56.184;2023-02-28T08:37:35;98359.44;;;-0.18;57.66
61113;BME280;47184;57.998;56.184;2023-02-28T08:40:02;98361.44;;;-0.41;58.74
61113;BME280;47184;57.998;56.184;2023-02-28T08:42:30;98346.38;;;-0.47;58.63
61113;BME280;47184;57.998;56.184;2023-02-28T08:44:56;98340.53;;;-0.49;58.76
61113;BME280;47184;57.998;56.184;2023-02-28T08:47:22;98345.50;;;-0.67;59.46
61113;BME280;47184;57.998;56.184;2023-02-28T08:49:48;98331.97;;;-0.70;59.96
61113;BME280;47184;57.998;56.184;2023-02-28T08:52:14;98335.97;;;-0.97;60.95
61113;BME280;47184;57.998;56.184;2023-02-28T08:54:40;98326.13;;;-1.45;61.57
61113;BME280;47184;57.998;56.184;2023-02-28T08:57:06;98323.94;;;-1.50;62.71
61113;BME280;47184;57.998;56.184;2023-02-28T08:59:33;98343.50;;;-1.57;63.64
61113;BME280;47184;57.998;56.184;2023-02-28T09:01:59;98333.88;;;-1.87;64.21
61113;BME280;47184;57.998;56.184;2023-02-28T09:04:25;98340.69;;;-1.86;63.95
61113;BME280;47184;57.998;56.184;2023-02-28T09:06:51;98348.44;;;-1.86;64.14
61113;BME280;47184;57.998;56.184;2023-02-28T09:09:17;98331.09;;;-2.06;64.37
61113;BME280;47184;57.998;56.184;2023-02-28T09:11:43;98330.06;;;-2.04;64.52
61113;BME280;47184;57.998;56.184;2023-02-28T09:14:10;98333.94;;;-2.09;64.06
61113;BME280;47184;57.998;56.184;2023-02-28T09:16:36;98296.41;;;-2.36;64.11
61113;BME280;47184;57.998;56.184;2023-02-28T09:19:02;98298.94;;;-1.92;63.58
61113;BME280;47184;57.998;56.184;2023-02-28T09:21:29;98314.97;;;-1.66;63.64
61113;BME280;47184;57.998;56.184;2023-02-28T09:23:56;98271.50;;;-2.05;62.99
61113;BME280;47184;57.998;56.184;2023-02-28T09:26:24;98302.72;;;-1.64;62.97
61113;BME280;47184;57.998;56.184;2023-02-28T09:28:51;98294.97;;;-1.96;62.03
61113;BME280;47184;57.998;56.184;2023-02-28T09:31:20;98283.53;;;-2.15;62.28
61113;BME280;47184;57.998;56.184;2023-02-28T09:33:52;98272.69;;;-2.09;62.27
61113;BME280;47184;57.998;56.184;2023-02-28T09:36:19;98267.00;;;-2.23;62.35
61113;BME280;47184;57.998;56.184;2023-02-28T09:38:49;98299.94;;;-2.37;62.46
61113;BME280;47184;57.998;56.184;2023-02-28T09:41:23;98324.16;;;-2.60;62.24
61113;BME280;47184;57.998;56.184;2023-02-28T09:43:52;98293.25;;;-2.62;62.19
61113;BME280;47184;57.998;56.184;2023-02-28T09:46:33;98224.63;;;-2.76;62.87
61113;BME280;47184;57.998;56.184;2023-02-28T09:49:06;98217.69;;;-2.75;62.85
61113;BME280;47184;57.998;56.184;2023-02-28T09:51:43;98229.75;;;-2.53;62.36
61113;BME280;47184;57.998;56.184;2023-02-28T09:54:23;98220.66;;;-2.47;62.57
61113;BME280;47184;57.998;56.184;2023-02-28T10:05:00;98212.97;;;-2.70;62.61
61113;BME280;47184;57.998;56.184;2023-02-28T10:10:03;98203.81;;;-2.74;62.74
61113;BME280;47184;57.998;56.184;2023-02-28T10:12:31;98130.31;;;-3.02;62.53
61113;BME280;47184;57.998;56.184;2023-02-28T10:14:59;98185.31;;;-2.47;62.52
61113;BME280;47184;57.998;56.184;2023-02-28T10:17:39;98185.34;;;-2.58;62.26
61113;BME280;47184;57.998;56.184;2023-02-28T10:20:20;98154.72;;;-2.63;61.70
61113;BME280;47184;57.998;56.184;2023-02-28T10:23:10;98152.78;;;-2.50;61.75
61113;BME280;47184;57.998;56.184;2023-02-28T10:25:39;98112.66;;;-2.86;61.96
61113;BME280;47184;57.998;56.184;2023-02-28T10:28:16;98133.88;;;-2.82;61.85
61113;BME280;47184;57.998;56.184;2023-02-28T10:30:52;98127.41;;;-2.77;61.64
61113;BME280;47184;57.998;56.184;2023-02-28T10:35:47;98118.09;;;-3.00;62.63
61113;BME280;47184;57.998;56.184;2023-02-28T10:38:19;98096.22;;;-2.85;62.77
61113;BME280;47184;57.998;56.184;2023-02-28T10:40:46;98081.97;;;-3.11;62.95
61113;BME280;47184;57.998;56.184;2023-02-28T10:45:39;98078.31;;;-2.97;63.87
61113;BME280;47184;57.998;56.184;2023-02-28T10:50:50;98064.25;;;-3.05;63.72
61113;BME280;47184;57.998;56.184;2023-02-28T10:58:30;98073.84;;;-2.75;63.36
61113;BME280;47184;57.998;56.184;2023-02-28T11:00:57;98081.63;;;-2.54;63.18
61113;BME280;47184;57.998;56.184;2023-02-28T11:03:30;98083.38;;;-2.75;63.32
61113;BME280;47184;57.998;56.184;2023-02-28T11:05:58;98082.63;;;-2.66;63.23
61113;BME280;47184;57.998;56.184;2023-02-28T11:08:27;98058.34;;;-2.75;62.97
61113;BME280;47184;57.998;56.184;2023-02-28T11:10:58;98064.00;;;-2.69;62.99
61113;BME280;47184;57.998;56.184;2023-02-28T11:13:36;98058.28;;;-2.84;62.93
61113;BME280;47184;57.998;56.184;2023-02-28T11:16:10;98033.81;;;-2.69;62.61
61113;BME280;47184;57.998;56.184;2023-02-28T11:18:52;98040.59;;;-2.68;62.50
61113;BME280;47184;57.998;56.184;2023-02-28T11:21:29;98067.00;;;-2.85;62.39
61113;BME280;47184;57.998;56.184;2023-02-28T11:24:06;98044.94;;;-2.89;62.75
61113;BME280;47184;57.998;56.184;2023-02-28T11:26:38;98030.81;;;-3.06;63.24
61113;BME280;47184;57.998;56.184;2023-02-28T11:29:20;98044.13;;;-2.69;63.11
61113;BME280;47184;57.998;56.184;2023-02-28T11:34:37;98011.34;;;-3.10;63.98
61113;BME280;47184;57.998;56.184;2023-02-28T11:37:13;98036.59;;;-2.61;63.75
61113;BME280;47184;57.998;56.184;2023-02-28T11:39:41;98013.69;;;-2.86;64.34
61113;BME280;47184;57.998;56.184;2023-02-28T11:42:18;98054.19;;;-2.87;64.05
61113;BME280;47184;57.998;56.184;2023-02-28T11:47:49;98037.06;;;-3.20;65.70
61113;BME280;47184;57.998;56.184;2023-02-28T11:50:45;98028.38;;;-3.19;66.27
61113;BME280;47184;57.998;56.184;2023-02-28T11:53:49;98021.91;;;-3.13;66.72
61113;BME280;47184;57.998;56.184;2023-02-28T12:04:47;98027.47;;;-3.29;68.66
61113;BME280;47184;57.998;56.184;2023-02-28T12:10:17;98013.31;;;-3.35;69.64
61113;BME280;47184;57.998;56.184;2023-02-28T12:12:51;98023.34;;;-3.20;69.61
61113;BME280;47184;57.998;56.184;2023-02-28T12:24:15;98032.25;;;-3.68;73.29
61113;BME280;47184;57.998;56.184;2023-02-28T12:26:45;97975.34;;;-3.87;73.67
61113;BME280;47184;57.998;56.184;2023-02-28T12:29:27;97993.00;;;-3.71;73.64
61113;BME280;47184;57.998;56.184;2023-02-28T12:32:04;98007.41;;;-3.58;74.56
61113;BME280;47184;57.998;56.184;2023-02-28T12:34:36;97999.38;;;-3.43;74.30
61113;BME280;47184;57.998;56.184;2023-02-28T12:37:34;98005.72;;;-3.47;74.65
61113;BME280;47184;57.998;56.184;2023-02-28T12:40:11;98025.53;;;-3.48;75.21
61113;BME280;47184;57.998;56.184;2023-02-28T12:42:42;97985.97;;;-3.69;75.97
61113;BME280;47184;57.998;56.184;2023-02-28T12:45:18;98009.38;;;-3.50;75.79
61113;BME280;47184;57.998;56.184;2023-02-28T12:47:50;97992.16;;;-3.72;76.68
61113;BME280;47184;57.998;56.184;2023-02-28T12:50:19;97994.25;;;-3.55;76.29
61113;BME280;47184;57.998;56.184;2023-02-28T12:55:46;97997.59;;;-3.86;77.79
61113;BME280;47184;57.998;56.184;2023-02-28T12:58:35;97989.75;;;-3.85;77.46
61113;BME280;47184;57.998;56.184;2023-02-28T13:11:53;97977.78;;;-3.86;77.65
61113;BME280;47184;57.998;56.184;2023-02-28T13:14:44;97979.09;;;-3.91;77.88
61113;BME280;47184;57.998;56.184;2023-02-28T13:17:20;97994.56;;;-3.91;77.86
61113;BME280;47184;57.998;56.184;2023-02-28T13:24:53;97942.72;;;-4.20;78.32
61113;BME280;47184;57.998;56.184;2023-02-28T13:27:36;97984.34;;;-3.93;78.75
61113;BME280;47184;57.998;56.184;2023-02-28T13:31:04;97975.81;;;-3.93;78.29
61113;BME280;47184;57.998;56.184;2023-02-28T13:33:32;97969.59;;;-3.91;77.95
61113;BME280;47184;57.998;56.184;2023-02-28T13:38:42;97967.75;;;-4.00;78.24
61113;BME280;47184;57.998;56.184;2023-02-28T13:57:14;97988.69;;;-4.05;78.14
61113;BME280;47184;57.998;56.184;2023-02-28T14:05:34;97980.88;;;-4.14;78.43
61113;BME280;47184;57.998;56.184;2023-02-28T14:08:06;97973.94;;;-4.03;78.07
61113;BME280;47184;57.998;56.184;2023-02-28T14:10:45;97975.38;;;-4.10;78.09
61113;BME280;47184;57.998;56.184;2023-02-28T14:13:37;97969.03;;;-4.17;78.44
61113;BME280;47184;57.998;56.184;2023-02-28T14:16:54;97973.88;;;-4.12;78.61
61113;BME280;47184;57.998;56.184;2023-02-28T14:19:09;98003.47;;;-4.18;78.33
61113;BME280;47184;57.998;56.184;2023-02-28T14:21:43;97967.06;;;-4.25;78.63
61113;BME280;47184;57.998;56.184;2023-02-28T14:29:59;97997.16;;;-4.25;78.59
61113;BME280;47184;57.998;56.184;2023-02-28T14:32:59;97977.13;;;-4.21;79.05
61113;BME280;47184;57.998;56.184;2023-02-28T14:38:31;97977.47;;;-4.15;78.88
61113;BME280;47184;57.998;56.184;2023-02-28T14:40:58;97986.59;;;-4.33;79.32
61113;BME280;47184;57.998;56.184;2023-02-28T14:43:27;97949.97;;;-4.48;79.71
61113;BME280;47184;57.998;56.184;2023-02-28T14:45:59;97979.97;;;-4.25;79.53
61113;BME280;47184;57.998;56.184;2023-02-28T14:48:27;97965.91;;;-4.32;79.65
61113;BME280;47184;57.998;56.184;2023-02-28T14:50:59;97957.13;;;-4.40;80.29
61113;BME280;47184;57.998;56.184;2023-02-28T14:53:30;97985.56;;;-4.19;80.28
61113;BME280;47184;57.998;56.184;2023-02-28T14:56:01;97976.66;;;-4.38;80.71
61113;BME280;47184;57.998;56.184;2023-02-28T14:58:32;97981.00;;;-4.38;81.02
61113;BME280;47184;57.998;56.184;2023-02-28T15:01:01;97974.66;;;-4.45;80.95
61113;BME280;47184;57.998;56.184;2023-02-28T15:03:34;97981.59;;;-4.12;80.54
61113;BME280;47184;57.998;56.184;2023-02-28T15:06:04;97976.91;;;-4.07;80.35
61113;BME280;47184;57.998;56.184;2023-02-28T15:08:32;97984.75;;;-4.20;81.02
61113;BME280;47184;57.998;56.184;2023-02-28T15:11:13;97998.22;;;-4.28;80.92
61113;BME280;47184;57.998;56.184;2023-02-28T15:13:46;97984.41;;;-4.15;80.99
61113;BME280;47184;57.998;56.184;2023-02-28T15:16:22;97975.00;;;-4.05;80.38
61113;BME280;47184;57.998;56.184;2023-02-28T15:19:14;97978.28;;;-4.14;80.45
61113;BME280;47184;57.998;56.184;2023-02-28T15:21:48;97977.03;;;-4.20;81.24
61113;BME280;47184;57.998;56.184;2023-02-28T15:24:27;97984.25;;;-4.25;81.37
61113;BME280;47184;57.998;56.184;2023-02-28T15:26:59;97965.06;;;-4.21;81.29
61113;BME280;47184;57.998;56.184;2023-02-28T15:29:28;97960.84;;;-4.33;81.55
61113;BME280;47184;57.998;56.184;2023-02-28T15:32:04;97979.13;;;-4.14;81.28
61113;BME280;47184;57.998;56.184;2023-02-28T15:34:41;97985.44;;;-4.07;80.94
61113;BME280;47184;57.998;56.184;2023-02-28T15:37:33;97964.72;;;-4.16;80.94
61113;BME280;47184;57.998;56.184;2023-02-28T15:43:15;97949.41;;;-4.40;80.64
61113;BME280;47184;57.998;56.184;2023-02-28T15:45:51;97983.22;;;-4.34;81.05
61113;BME280;47184;57.998;56.184;2023-02-28T15:50:53;97980.88;;;-4.03;80.04
61113;BME280;47184;57.998;56.184;2023-02-28T15:53:27;97974.63;;;-4.01;79.48
61113;BME280;47184;57.998;56.184;2023-02-28T15:56:33;97970.09;;;-4.08;79.29
61113;BME280;47184;57.998;56.184;2023-02-28T15:59:04;97976.91;;;-4.07;78.95
61113;BME280;47184;57.998;56.184;2023-02-28T16:01:36;97974.41;;;-4.09;78.65
61113;BME280;47184;57.998;56.184;2023-02-28T16:04:16;97967.75;;;-4.11;78.61
61113;BME280;47184;57.998;56.184;2023-02-28T16:07:00;97973.97;;;-4.14;78.34
61113;BME280;47184;57.998;56.184;2023-02-28T16:09:29;97977.69;;;-3.95;77.91
61113;BME280;47184;57.998;56.184;2023-02-28T16:12:00;97973.94;;;-3.91;77.03
61113;BME280;47184;57.998;56.184;2023-02-28T16:14:28;97970.88;;;-3.85;77.73
61113;BME280;47184;57.998;56.184;2023-02-28T16:17:12;97963.16;;;-3.96;76.97
61113;BME280;47184;57.998;56.184;2023-02-28T16:19:43;97969.38;;;-3.99;76.75
61113;BME280;47184;57.998;56.184;2023-02-28T16:22:10;97952.38;;;-3.90;76.71
61113;BME280;47184;57.998;56.184;2023-02-28T16:24:38;97960.25;;;-3.92;76.67
61113;BME280;47184;57.998;56.184;2023-02-28T16:27:21;97959.16;;;-3.89;76.24
61113;BME280;47184;57.998;56.184;2023-02-28T16:29:51;97956.50;;;-3.99;76.61
61113;BME280;47184;57.998;56.184;2023-02-28T16:32:18;97956.72;;;-3.91;76.61
61113;BME280;47184;57.998;56.184;2023-02-28T16:34:45;97954.47;;;-3.84;76.11
61113;BME280;47184;57.998;56.184;2023-02-28T16:37:15;97952.75;;;-3.95;75.97
61113;BME280;47184;57.998;56.184;2023-02-28T16:39:45;97956.00;;;-3.93;76.28
61113;BME280;47184;57.998;56.184;2023-02-28T16:42:23;97951.44;;;-4.01;76.38
61113;BME280;47184;57.998;56.184;2023-02-28T16:44:52;97943.75;;;-4.34;76.51
61113;BME280;47184;57.998;56.184;2023-02-28T16:47:19;97964.34;;;-4.01;76.43
61113;BME280;47184;57.998;56.184;2023-02-28T16:49:46;97958.84;;;-3.96;76.32
61113;BME280;47184;57.998;56.184;2023-02-28T16:52:15;97961.31;;;-4.17;76.80
61113;BME280;47184;57.998;56.184;2023-02-28T16:54:45;97963.78;;;-4.04;76.58
61113;BME280;47184;57.998;56.184;2023-02-28T16:57:22;97945.81;;;-3.94;76.44
61113;BME280;47184;57.998;56.184;2023-02-28T16:59:50;97950.41;;;-3.98;76.34
61113;BME280;47184;57.998;56.184;2023-02-28T17:02:19;97947.47;;;-4.05;76.25
61113;BME280;47184;57.998;56.184;2023-02-28T17:04:46;97941.97;;;-4.00;76.11
61113;BME280;47184;57.998;56.184;2023-02-28T17:07:14;97929.91;;;-4.11;76.37
61113;BME280;47184;57.998;56.184;2023-02-28T17:09:44;97930.66;;;-4.20;76.83
61113;BME280;47184;57.998;56.184;2023-02-28T17:12:10;97941.94;;;-3.89;76.32
61113;BME280;47184;57.998;56.184;2023-02-28T17:14:38;97936.75;;;-3.78;75.81
61113;BME280;47184;57.998;56.184;2023-02-28T17:17:06;97939.84;;;-3.84;75.73
61113;BME280;47184;57.998;56.184;2023-02-28T17:19:34;97914.09;;;-4.06;76.14
61113;BME280;47184;57.998;56.184;2023-02-28T17:22:04;97941.13;;;-3.89;76.06
61113;BME280;47184;57.998;56.184;2023-02-28T17:24:31;97934.78;;;-3.85;75.86
61113;BME280;47184;57.998;56.184;2023-02-28T17:26:57;97931.03;;;-3.92;75.70
61113;BME280;47184;57.998;56.184;2023-02-28T17:29:24;97936.78;;;-3.89;75.67
61113;BME280;47184;57.998;56.184;2023-02-28T17:31:51;97932.72;;;-4.03;76.07
61113;BME280;47184;57.998;56.184;2023-02-28T17:34:19;97937.75;;;-4.01;75.65
61113;BME280;47184;57.998;56.184;2023-02-28T17:36:47;97926.31;;;-4.19;76.42
61113;BME280;47184;57.998;56.184;2023-02-28T17:39:16;97936.63;;;-4.19;75.97
61113;BME280;47184;57.998;56.184;2023-02-28T17:41:54;97922.06;;;-4.09;75.88
61113;BME280;47184;57.998;56.184;2023-02-28T17:44:22;97926.41;;;-4.21;76.17
61113;BME280;47184;57.998;56.184;2023-02-28T17:46:53;97901.22;;;-4.17;75.74
61113;BME280;47184;57.998;56.184;2023-02-28T17:49:21;97914.91;;;-4.06;75.57
61113;BME280;47184;57.998;56.184;2023-02-28T17:51:48;97920.78;;;-4.04;75.42
61113;BME280;47184;57.998;56.184;2023-02-28T17:54:15;97922.78;;;-4.07;75.64
61113;BME280;47184;57.998;56.184;2023-02-28T17:56:42;97915.03;;;-4.07;74.92
61113;BME280;47184;57.998;56.184;2023-02-28T17:59:12;97915.72;;;-4.05;74.62
61113;BME280;47184;57.998;56.184;2023-02-28T18:01:39;97895.63;;;-4.22;74.78
61113;BME280;47184;57.998;56.184;2023-02-28T18:04:05;97919.97;;;-4.04;74.38
61113;BME280;47184;57.998;56.184;2023-02-28T18:06:40;97923.19;;;-3.91;74.04
61113;BME280;47184;57.998;56.184;2023-02-28T18:09:20;97919.44;;;-3.87;73.62
61113;BME280;47184;57.998;56.184;2023-02-28T18:11:55;97924.84;;;-4.01;73.58
61113;BME280;47184;57.998;56.184;2023-02-28T18:14:23;97916.41;;;-3.92;73.07
61113;BME280;47184;57.998;56.184;2023-02-28T18:16:55;97908.13;;;-4.07;72.97
61113;BME280;47184;57.998;56.184;2023-02-28T18:19:22;97902.97;;;-4.07;72.91
61113;BME280;47184;57.998;56.184;2023-02-28T18:21:50;97916.28;;;-3.90;72.57
61113;BME280;47184;57.998;56.184;2023-02-28T18:24:19;97927.84;;;-3.85;72.15
61113;BME280;47184;57.998;56.184;2023-02-28T18:26:45;97908.22;;;-3.97;72.44
61113;BME280;47184;57.998;56.184;2023-02-28T18:29:18;97921.13;;;-4.08;72.04
61113;BME280;47184;57.998;56.184;2023-02-28T18:31:44;97916.75;;;-3.96;71.75
61113;BME280;47184;57.998;56.184;2023-02-28T18:34:10;97909.09;;;-3.76;71.19
61113;BME280;47184;57.998;56.184;2023-02-28T18:36:37;97914.72;;;-3.70;71.17
61113;BME280;47184;57.998;56.184;2023-02-28T18:39:03;97914.81;;;-3.72;71.24
61113;BME280;47184;57.998;56.184;2023-02-28T18:41:30;97909.66;;;-3.72;71.24
61113;BME280;47184;57.998;56.184;2023-02-28T18:43:56;97905.69;;;-3.76;70.82
61113;BME280;47184;57.998;56.184;2023-02-28T18:46:22;97869.16;;;-3.92;70.77
61113;BME280;47184;57.998;56.184;2023-02-28T18:48:48;97906.22;;;-3.93;71.39
61113;BME280;47184;57.998;56.184;2023-02-28T18:51:20;97900.81;;;-3.90;71.42
61113;BME280;47184;57.998;56.184;2023-02-28T18:53:47;97883.03;;;-4.05;71.15
61113;BME280;47184;57.998;56.184;2023-02-28T18:56:19;97918.03;;;-3.91;71.28
61113;BME280;47184;57.998;56.184;2023-02-28T18:58:45;97907.94;;;-3.83;70.99
61113;BME280;47184;57.998;56.184;2023-02-28T19:01:23;97916.00;;;-3.76;71.11
61113;BME280;47184;57.998;56.184;2023-02-28T19:03:51;97911.03;;;-3.68;70.81
61113;BME280;47184;57.998;56.184;2023-02-28T19:06:18;97894.34;;;-3.85;70.58
61113;BME280;47184;57.998;56.184;2023-02-28T19:08:45;97914.09;;;-3.63;70.55
61113;BME280;47184;57.998;56.184;2023-02-28T19:11:14;97912.78;;;-3.57;70.23
61113;BME280;47184;57.998;56.184;2023-02-28T19:13:41;97899.34;;;-3.72;70.71
61113;BME280;47184;57.998;56.184;2023-02-28T19:16:09;97913.53;;;-3.66;70.50
61113;BME280;47184;57.998;56.184;2023-02-28T19:18:36;97920.22;;;-3.75;70.97
61113;BME280;47184;57.998;56.184;2023-02-28T19:21:02;97910.44;;;-3.60;70.36